Centennial Airport
KAPA : rendu visible

Aérodrome :











RETROUVEZ-NOUS SUR...

 
LOGIN :

S'inscrire | Disclaimer

   EN    FR    IT 

 









Légende :    VFR   VFR Marginal   IFR   IFR Intensif   IFR Très Intensif
Visi : 
Plafond : 
>= 8 km
>= 3000ft
5 à 8 km
1000 à 3000 ft
1500m à 5 km
500 à 1000 ft
800 à 1500m
200 à 500 ft
< 800m
< 200 ft
Symboles :   Orages  Brouillard  Fortes neiges  Fortes précipitations  Vent > 20 kt






- Altitude de l'aérodrome : 5885 ft


KAPA - Centennial

DERNIER METAR :
  • 290853Z 22008KT 10SM FEW220 M01/M11 A3003 RMK AO2 SLP177 T10111106 58003

METARs EXPIRÉS :
  • 290753Z 21007KT 10SM FEW220 00/M11 A3003 RMK AO2 SLP176 T00001106
  • 290653Z 23010KT 10SM FEW100 FEW220 02/M11 A3004 RMK AO2 SLP178 T00221111 400941028

TAF KAPA
Valide du 29 à 06h jusqu'au 30 à 06h UTC


290528Z 2906/3006 21008KT P6SM FEW220
FM291200 17008KT P6SM FEW220
FM291800 11008KT P6SM SCT080 BKN150
FM300100 23008KT P6SM VCSH SCT060 BKN100
PROB30 3001/3004 6SM -SHRA BKN050
FM300500 32008KT P6SM SCT030 BKN070



MET'MAP, la Météo Aéronautique d'un coup d'oeil ! - Copyright ORBIFLY Décembre 2007 - Disclaimer

ORBIFLY MET'MAP TEAM :

Programmation & Développement : Alexandra Zaïnal
Sur une idée originale de : Baudouin d'Aumeries
Assistance à la programmation : Marc-Olivier Méhu
Soutien technique & logistique : Manuel Goepfert

Contact : metmap@orbifly.com




SOURCES & CREDITS :

   NOAA       Earth
Advisory